createdAt,value
2022-09-14T00:01:34.182Z,16.50
2022-09-14T00:04:05.857Z,16.26
2022-09-14T00:06:33.966Z,16.43
2022-09-14T00:09:06.868Z,16.44
2022-09-14T00:11:37.357Z,16.43
2022-09-14T00:14:07.327Z,16.45
2022-09-14T00:16:38.604Z,16.53
2022-09-14T00:19:08.773Z,16.62
2022-09-14T00:21:38.407Z,16.68
2022-09-14T00:24:08.408Z,16.60
2022-09-14T00:26:36.743Z,16.60
2022-09-14T00:29:06.603Z,16.65
2022-09-14T00:31:38.217Z,16.72
2022-09-14T00:34:07.785Z,16.73
2022-09-14T00:36:40.347Z,16.73
2022-09-14T00:39:09.418Z,16.73
2022-09-14T00:41:44.476Z,16.69
2022-09-14T00:44:45.496Z,16.66
2022-09-14T00:47:17.393Z,16.64
2022-09-14T00:49:45.968Z,16.70
2022-09-14T00:52:20.631Z,16.69
2022-09-14T00:54:51.930Z,16.73
2022-09-14T00:57:21.172Z,16.75
2022-09-14T00:59:53.076Z,16.69
2022-09-14T01:02:24.749Z,16.65
2022-09-14T01:04:53.396Z,16.69
2022-09-14T01:07:33.381Z,16.59
2022-09-14T01:10:08.668Z,16.54
2022-09-14T01:12:48.685Z,16.54
2022-09-14T01:15:23.254Z,16.32
2022-09-14T01:18:08.307Z,15.87
2022-09-14T01:20:40.982Z,16.20
2022-09-14T01:23:14.898Z,16.22
2022-09-14T01:26:18.484Z,16.25
2022-09-14T01:28:54.489Z,16.19
2022-09-14T01:31:29.963Z,16.33
2022-09-14T01:34:06.344Z,16.28
2022-09-14T01:36:37.515Z,16.39
2022-09-14T01:39:05.528Z,16.36
2022-09-14T01:41:34.055Z,16.36
2022-09-14T01:44:10.555Z,16.29
2022-09-14T01:46:41.822Z,16.28
2022-09-14T01:49:15.021Z,16.25
2022-09-14T01:51:48.196Z,16.04
2022-09-14T01:54:22.178Z,16.02
2022-09-14T01:56:54.061Z,16.06
2022-09-14T01:59:26.241Z,16.17
2022-09-14T02:01:59.977Z,16.27
2022-09-14T02:04:33.184Z,16.30
2022-09-14T02:07:01.078Z,16.33
2022-09-14T02:09:29.224Z,16.32
2022-09-14T02:12:00.754Z,16.10
2022-09-14T02:14:30.756Z,15.97
2022-09-14T02:16:58.882Z,15.98
2022-09-14T02:19:31.287Z,15.99
2022-09-14T02:21:59.706Z,16.02
2022-09-14T02:24:29.276Z,16.09
2022-09-14T02:26:59.182Z,16.14
2022-09-14T02:29:27.053Z,16.13
2022-09-14T02:32:05.684Z,16.06
2022-09-14T02:34:43.035Z,16.03
2022-09-14T02:37:16.568Z,16.04
2022-09-14T02:39:51.685Z,16.01
2022-09-14T02:42:30.287Z,16.01
2022-09-14T02:45:04.881Z,15.99
2022-09-14T02:47:44.188Z,15.99
2022-09-14T02:50:21.424Z,16.03
2022-09-14T02:52:56.684Z,16.16
2022-09-14T02:55:29.339Z,16.26
2022-09-14T02:58:04.975Z,16.36
2022-09-14T03:00:36.616Z,16.35
2022-09-14T03:03:06.080Z,16.51
2022-09-14T03:05:34.777Z,16.58
2022-09-14T03:08:03.962Z,16.58
2022-09-14T03:10:32.409Z,16.60
2022-09-14T03:13:00.846Z,16.60
2022-09-14T03:15:29.449Z,16.54
2022-09-14T03:17:57.745Z,16.55
2022-09-14T03:20:28.966Z,16.53
2022-09-14T03:22:56.770Z,16.43
2022-09-14T03:25:24.579Z,16.41
2022-09-14T03:27:53.923Z,16.34
2022-09-14T03:30:22.149Z,16.27
2022-09-14T03:32:50.249Z,16.00
2022-09-14T03:35:19.223Z,15.76
2022-09-14T03:37:48.496Z,15.85
2022-09-14T03:40:21.603Z,15.90
2022-09-14T03:42:52.222Z,15.98
2022-09-14T03:45:21.465Z,16.00
2022-09-14T03:47:50.199Z,15.95
2022-09-14T03:50:19.841Z,15.92
2022-09-14T03:52:49.489Z,15.91
2022-09-14T03:55:19.174Z,15.96
2022-09-14T03:57:47.089Z,16.03
2022-09-14T04:00:15.750Z,16.12
2022-09-14T04:02:45.075Z,16.14
2022-09-14T04:05:13.293Z,16.16
2022-09-14T04:07:41.220Z,16.14
2022-09-14T04:10:11.548Z,16.20
2022-09-14T04:12:40.288Z,16.27
2022-09-14T04:15:09.200Z,16.32
2022-09-14T04:17:37.105Z,16.32
2022-09-14T04:20:05.393Z,16.28
2022-09-14T04:22:34.783Z,16.21
2022-09-14T04:25:02.864Z,16.08
2022-09-14T04:27:32.383Z,16.14
2022-09-14T04:30:00.287Z,16.08
2022-09-14T04:32:33.566Z,16.14
2022-09-14T04:35:02.368Z,16.13
2022-09-14T04:37:32.734Z,16.21
2022-09-14T04:40:00.733Z,16.32
2022-09-14T04:42:30.889Z,16.37
2022-09-14T04:45:00.256Z,16.38
2022-09-14T04:47:30.319Z,16.46
2022-09-14T04:49:58.237Z,16.51
2022-09-14T04:52:26.231Z,16.56
2022-09-14T04:54:54.099Z,16.59
2022-09-14T04:57:21.940Z,16.64
2022-09-14T04:59:49.809Z,16.70
2022-09-14T05:02:19.236Z,16.69
2022-09-14T05:04:47.290Z,16.72
2022-09-14T05:07:15.152Z,16.68
2022-09-14T05:09:43.624Z,16.77
2022-09-14T05:12:11.492Z,16.80
2022-09-14T05:14:39.294Z,16.83
2022-09-14T05:17:07.134Z,16.85
2022-09-14T05:19:36.463Z,16.81
2022-09-14T05:22:04.473Z,16.86
2022-09-14T05:24:32.472Z,16.88
2022-09-14T05:27:02.189Z,16.86
2022-09-14T05:29:31.915Z,16.87
2022-09-14T05:31:59.979Z,16.92
2022-09-14T05:34:27.911Z,16.88
2022-09-14T05:36:57.113Z,16.90
2022-09-14T05:39:24.970Z,16.99
2022-09-14T05:41:52.835Z,17.03
2022-09-14T05:44:20.633Z,17.07
2022-09-14T05:46:48.470Z,17.16
2022-09-14T05:49:16.320Z,17.20
2022-09-14T05:51:44.187Z,17.25
2022-09-14T05:54:13.394Z,17.27
2022-09-14T05:56:41.183Z,17.28
2022-09-14T05:59:10.717Z,17.28
2022-09-14T06:01:38.643Z,17.29
2022-09-14T06:04:06.483Z,17.27
2022-09-14T06:06:34.760Z,17.35
2022-09-14T06:09:02.631Z,17.50
2022-09-14T06:11:36.207Z,17.49
2022-09-14T06:14:04.333Z,17.40
2022-09-14T06:16:32.177Z,17.33
2022-09-14T06:19:00.940Z,17.30
2022-09-14T06:21:31.054Z,17.25
2022-09-14T06:23:58.927Z,17.29
2022-09-14T06:26:27.353Z,17.35
2022-09-14T06:28:56.622Z,17.44
2022-09-14T06:31:25.368Z,17.49
2022-09-14T06:33:53.896Z,17.64
2022-09-14T06:36:23.001Z,17.73
2022-09-14T06:38:51.192Z,17.75
2022-09-14T06:41:21.673Z,17.78
2022-09-14T06:43:50.609Z,17.81
2022-09-14T06:46:21.693Z,17.70
2022-09-14T06:48:51.190Z,17.64
2022-09-14T06:51:20.824Z,17.62
2022-09-14T06:53:49.974Z,17.72
2022-09-14T06:56:18.756Z,17.87
2022-09-14T06:58:46.994Z,17.88
2022-09-14T07:01:16.613Z,17.94
2022-09-14T07:03:46.934Z,17.95
2022-09-14T07:06:16.800Z,17.85
2022-09-14T07:08:45.269Z,17.88
2022-09-14T07:11:14.408Z,18.00
2022-09-14T07:13:42.417Z,18.16
2022-09-14T07:16:11.224Z,18.26
2022-09-14T07:18:39.673Z,18.31
2022-09-14T07:21:11.657Z,18.29
2022-09-14T07:23:41.414Z,18.30
2022-09-14T07:26:11.781Z,18.20
2022-09-14T07:28:40.309Z,18.09
2022-09-14T07:31:17.021Z,18.04
2022-09-14T07:33:44.950Z,18.16
2022-09-14T07:36:15.288Z,18.31
2022-09-14T07:38:58.444Z,18.46
2022-09-14T07:41:28.608Z,18.62
2022-09-14T07:44:00.195Z,18.72
2022-09-14T07:46:29.387Z,18.82
2022-09-14T07:48:58.409Z,18.87
2022-09-14T07:51:28.941Z,18.86
2022-09-14T07:53:57.255Z,18.81
2022-09-14T07:56:25.923Z,18.73
2022-09-14T07:59:07.133Z,18.58
2022-09-14T08:01:44.093Z,18.58
2022-09-14T08:04:12.050Z,18.64
2022-09-14T08:06:42.260Z,18.67
2022-09-14T08:09:10.121Z,18.70
2022-09-14T08:11:38.563Z,18.73
2022-09-14T08:14:09.750Z,18.84
2022-09-14T08:16:38.671Z,18.85
2022-09-14T08:19:10.727Z,18.84
2022-09-14T08:21:42.789Z,18.81
2022-09-14T08:24:17.565Z,18.47
2022-09-14T08:26:45.986Z,18.41
2022-09-14T08:29:14.217Z,18.36
2022-09-14T08:31:43.269Z,18.41
2022-09-14T08:34:11.104Z,18.54
2022-09-14T08:36:40.243Z,18.54
2022-09-14T08:39:10.360Z,18.58
2022-09-14T08:41:45.637Z,18.56
2022-09-14T08:44:19.541Z,18.59
2022-09-14T08:46:50.041Z,18.50
2022-09-14T08:49:26.015Z,18.46
2022-09-14T08:51:53.822Z,18.39
2022-09-14T08:54:21.593Z,18.50
2022-09-14T08:56:56.571Z,18.62
2022-09-14T08:59:37.219Z,18.73
2022-09-14T09:02:37.201Z,18.94
2022-09-14T09:05:22.220Z,19.13
2022-09-14T09:07:58.417Z,19.27
2022-09-14T09:10:28.185Z,19.38
2022-09-14T09:13:00.425Z,19.49
2022-09-14T09:15:32.442Z,19.53
2022-09-14T09:18:03.230Z,19.52
2022-09-14T09:20:35.354Z,19.51
2022-09-14T09:23:12.573Z,19.45
2022-09-14T09:25:56.184Z,19.36
2022-09-14T09:28:27.159Z,19.33
2022-09-14T09:30:58.117Z,19.25
2022-09-14T09:33:37.639Z,19.30
2022-09-14T09:36:15.330Z,19.38
2022-09-14T09:38:43.568Z,19.48
2022-09-14T09:41:17.231Z,19.59
2022-09-14T09:44:01.428Z,19.70
2022-09-14T09:46:31.565Z,19.73
2022-09-14T09:49:00.429Z,19.63
2022-09-14T09:51:30.610Z,19.67
2022-09-14T09:54:02.579Z,19.59
2022-09-14T09:56:33.892Z,19.65
2022-09-14T09:59:03.410Z,19.82
2022-09-14T10:01:33.800Z,19.94
2022-09-14T10:04:05.996Z,20.04
2022-09-14T10:06:42.603Z,20.16
2022-09-14T10:09:16.124Z,20.29
2022-09-14T10:11:45.683Z,20.21
2022-09-14T10:14:31.232Z,20.32
2022-09-14T10:17:08.203Z,20.45
2022-09-14T10:19:36.128Z,20.51
2022-09-14T10:22:17.536Z,20.57
2022-09-14T10:24:55.134Z,20.71
2022-09-14T10:27:37.826Z,20.70
2022-09-14T10:30:14.776Z,20.58
2022-09-14T10:32:46.276Z,20.49
2022-09-14T10:35:15.447Z,20.33
2022-09-14T10:38:00.637Z,20.21
2022-09-14T10:40:34.127Z,20.07
2022-09-14T10:43:12.348Z,19.88
2022-09-14T10:45:50.316Z,19.68
2022-09-14T10:48:40.949Z,19.58
2022-09-14T10:51:30.941Z,19.79
2022-09-14T10:54:06.741Z,19.94
2022-09-14T10:56:43.625Z,20.05
2022-09-14T10:59:27.052Z,20.15
2022-09-14T11:02:40.110Z,20.28
2022-09-14T11:05:13.892Z,20.32
2022-09-14T11:07:50.689Z,20.39
2022-09-14T11:10:28.932Z,20.38
2022-09-14T11:13:13.978Z,20.30
2022-09-14T11:15:49.025Z,20.22
2022-09-14T11:18:25.640Z,20.27
2022-09-14T11:21:05.523Z,20.25
2022-09-14T11:23:44.962Z,20.34
2022-09-14T11:26:16.223Z,20.38
2022-09-14T11:28:48.661Z,20.32
2022-09-14T11:31:22.987Z,20.31
2022-09-14T11:33:56.892Z,20.25
2022-09-14T11:36:29.402Z,20.16
2022-09-14T11:39:06.925Z,20.03
2022-09-14T11:41:43.489Z,19.97
2022-09-14T11:44:16.836Z,19.90
2022-09-14T11:46:49.365Z,19.89
2022-09-14T11:49:26.120Z,19.83
2022-09-14T11:51:59.079Z,19.92
2022-09-14T11:54:26.978Z,19.96
2022-09-14T11:56:59.382Z,20.05
2022-09-14T11:59:37.673Z,20.17
2022-09-14T12:02:54.414Z,20.22
2022-09-14T12:05:32.227Z,20.26
2022-09-14T12:08:02.960Z,20.32
2022-09-14T12:10:31.656Z,20.31
2022-09-14T12:13:20.001Z,20.24
2022-09-14T12:15:48.089Z,20.14
2022-09-14T12:18:23.128Z,20.10
2022-09-14T12:21:02.585Z,19.93
2022-09-14T12:23:33.813Z,19.81
2022-09-14T12:26:15.848Z,19.73
2022-09-14T12:28:49.018Z,19.72
2022-09-14T12:31:40.265Z,19.81
2022-09-14T12:34:20.599Z,19.93
2022-09-14T12:37:28.170Z,20.00
2022-09-14T12:40:36.207Z,19.99
2022-09-14T12:43:49.550Z,20.00
2022-09-14T12:46:41.769Z,20.12
2022-09-14T12:49:39.594Z,20.29
2022-09-14T12:52:34.047Z,20.48
2022-09-14T12:55:16.104Z,20.61
2022-09-14T12:57:50.039Z,20.79
2022-09-14T13:00:20.606Z,20.98
2022-09-14T13:03:15.909Z,21.18
2022-09-14T13:05:46.078Z,21.36
2022-09-14T13:08:22.060Z,21.49
2022-09-14T13:10:52.738Z,21.57
2022-09-14T13:13:24.864Z,21.71
2022-09-14T13:15:56.911Z,21.63
2022-09-14T13:18:30.753Z,21.47
2022-09-14T13:21:00.796Z,21.30
2022-09-14T13:23:33.594Z,21.19
2022-09-14T13:26:09.136Z,21.25
2022-09-14T13:28:37.083Z,21.25
2022-09-14T13:31:06.450Z,21.13
2022-09-14T13:33:34.329Z,21.04
2022-09-14T13:36:04.620Z,20.87
2022-09-14T13:38:37.525Z,20.88
2022-09-14T13:41:08.125Z,20.83
2022-09-14T13:43:36.375Z,20.73
2022-09-14T13:46:08.047Z,20.74
2022-09-14T13:48:40.030Z,20.74
2022-09-14T13:51:09.250Z,20.74
2022-09-14T13:53:41.487Z,20.69
2022-09-14T13:56:20.997Z,20.79
2022-09-14T13:58:50.781Z,20.77
2022-09-14T14:01:27.726Z,20.78
2022-09-14T14:03:55.712Z,20.74
2022-09-14T14:06:27.036Z,20.59
2022-09-14T14:09:02.968Z,20.36
2022-09-14T14:11:35.623Z,20.32
2022-09-14T14:14:19.046Z,20.52
2022-09-14T14:17:20.075Z,20.60
2022-09-14T14:19:48.571Z,20.60
2022-09-14T14:22:20.418Z,20.50
2022-09-14T14:25:12.474Z,20.59
2022-09-14T14:27:43.973Z,20.55
2022-09-14T14:30:15.914Z,20.54
2022-09-14T14:32:43.977Z,20.74
2022-09-14T14:35:16.835Z,20.79
2022-09-14T14:37:44.965Z,20.83
2022-09-14T14:40:14.322Z,20.82
2022-09-14T14:42:43.286Z,20.83
2022-09-14T14:45:15.765Z,20.96
2022-09-14T14:47:43.618Z,21.12
2022-09-14T14:50:15.723Z,21.17
2022-09-14T14:52:43.661Z,21.16
2022-09-14T14:55:11.966Z,21.00
2022-09-14T14:57:41.185Z,20.91
2022-09-14T15:00:15.348Z,20.84
2022-09-14T15:02:43.690Z,20.71
2022-09-14T15:05:12.629Z,20.58
2022-09-14T15:07:40.873Z,20.53
2022-09-14T15:10:12.143Z,20.47
2022-09-14T15:12:41.380Z,20.57
2022-09-14T15:15:13.317Z,20.67
2022-09-14T15:17:41.145Z,20.71
2022-09-14T15:20:10.001Z,20.72
2022-09-14T15:22:38.411Z,20.82
2022-09-14T15:25:07.432Z,20.76
2022-09-14T15:27:35.488Z,20.79
2022-09-14T15:30:06.798Z,20.70
2022-09-14T15:32:34.867Z,20.61
2022-09-14T15:35:03.070Z,20.57
2022-09-14T15:37:31.005Z,20.59
2022-09-14T15:39:58.903Z,20.62
2022-09-14T15:42:27.178Z,20.85
2022-09-14T15:44:55.038Z,20.85
2022-09-14T15:47:24.187Z,20.73
2022-09-14T15:49:52.929Z,20.81
2022-09-14T15:52:21.039Z,20.65
2022-09-14T15:54:49.294Z,20.77
2022-09-14T15:57:17.388Z,20.66
2022-09-14T15:59:45.170Z,20.75
2022-09-14T16:02:13.057Z,20.70
2022-09-14T16:04:42.299Z,20.66
2022-09-14T16:07:10.610Z,20.61
2022-09-14T16:09:39.489Z,20.55
2022-09-14T16:12:08.163Z,20.53
2022-09-14T16:14:36.249Z,20.49
2022-09-14T16:17:05.068Z,20.42
2022-09-14T16:19:33.264Z,20.32
2022-09-14T16:22:02.556Z,20.26
2022-09-14T16:24:31.000Z,20.18
2022-09-14T16:26:59.132Z,20.14
2022-09-14T16:29:27.368Z,20.09
2022-09-14T16:31:55.564Z,20.03
2022-09-14T16:34:24.833Z,20.00
2022-09-14T16:36:53.274Z,19.99
2022-09-14T16:39:25.086Z,19.82
2022-09-14T16:41:53.970Z,19.96
2022-09-14T16:44:25.552Z,19.92
2022-09-14T16:46:54.663Z,19.89
2022-09-14T16:49:27.218Z,19.85
2022-09-14T16:51:56.250Z,19.80
2022-09-14T16:54:27.153Z,19.79
2022-09-14T16:56:56.952Z,19.75
2022-09-14T16:59:25.562Z,19.75
2022-09-14T17:01:54.858Z,19.74
2022-09-14T17:04:24.344Z,19.73
2022-09-14T17:06:53.181Z,19.69
2022-09-14T17:09:23.467Z,19.68
2022-09-14T17:11:54.025Z,19.66
2022-09-14T17:14:23.491Z,19.64
2022-09-14T17:16:51.383Z,19.59
2022-09-14T17:19:19.293Z,19.54
2022-09-14T17:21:48.224Z,19.49
2022-09-14T17:24:18.688Z,19.46
2022-09-14T17:26:47.686Z,19.46
2022-09-14T17:29:17.563Z,19.44
2022-09-14T17:31:46.566Z,19.38
2022-09-14T17:34:16.941Z,19.33
2022-09-14T17:36:45.536Z,19.28
2022-09-14T17:39:15.449Z,19.25
2022-09-14T17:41:44.253Z,19.21
2022-09-14T17:44:15.231Z,19.17
2022-09-14T17:46:51.984Z,19.14
2022-09-14T17:49:21.464Z,19.07
2022-09-14T17:51:49.454Z,19.08
2022-09-14T17:54:17.709Z,19.05
2022-09-14T17:56:45.765Z,19.03
2022-09-14T17:59:15.634Z,19.01
2022-09-14T18:01:45.023Z,19.01
2022-09-14T18:04:15.167Z,19.00
2022-09-14T18:06:44.776Z,18.99
2022-09-14T18:09:15.651Z,18.96
2022-09-14T18:11:44.589Z,18.95
2022-09-14T18:14:14.383Z,18.95
2022-09-14T18:16:43.376Z,18.93
2022-09-14T18:19:12.889Z,18.92
2022-09-14T18:21:41.351Z,18.93
2022-09-14T18:24:10.634Z,18.94
2022-09-14T18:26:39.015Z,18.95
2022-09-14T18:29:07.041Z,18.97
2022-09-14T18:31:35.056Z,18.97
2022-09-14T18:34:03.173Z,18.89
2022-09-14T18:36:32.502Z,18.90
2022-09-14T18:39:00.563Z,18.91
2022-09-14T18:41:31.200Z,18.88
2022-09-14T18:43:59.333Z,18.83
2022-09-14T18:46:28.666Z,18.77
2022-09-14T18:48:58.331Z,18.76
2022-09-14T18:51:26.891Z,18.73
2022-09-14T18:54:01.085Z,18.73
2022-09-14T18:56:29.701Z,18.74
2022-09-14T18:58:57.761Z,18.74
2022-09-14T19:01:26.471Z,18.73
2022-09-14T19:03:55.991Z,18.76
2022-09-14T19:06:24.141Z,18.75
2022-09-14T19:08:52.635Z,18.78
2022-09-14T19:11:23.706Z,18.82
2022-09-14T19:13:56.892Z,18.85
2022-09-14T19:16:25.385Z,18.85
2022-09-14T19:18:53.463Z,18.82
2022-09-14T19:21:24.445Z,18.82
2022-09-14T19:24:00.176Z,18.79
2022-09-14T19:26:31.981Z,18.77
2022-09-14T19:29:01.145Z,18.74
2022-09-14T19:31:30.526Z,18.73
2022-09-14T19:33:58.611Z,18.66
2022-09-14T19:36:27.318Z,18.62
2022-09-14T19:38:57.265Z,18.57
2022-09-14T19:41:25.615Z,18.51
2022-09-14T19:43:55.037Z,18.44
2022-09-14T19:46:24.304Z,18.37
2022-09-14T19:48:52.733Z,18.40
2022-09-14T19:51:22.722Z,18.36
2022-09-14T19:53:52.349Z,18.32
2022-09-14T19:56:21.834Z,18.30
2022-09-14T19:58:52.188Z,18.29
2022-09-14T20:01:23.709Z,18.32
2022-09-14T20:03:51.981Z,18.41
2022-09-14T20:06:23.464Z,18.42
2022-09-14T20:08:53.187Z,18.52
2022-09-14T20:11:23.411Z,18.54
2022-09-14T20:13:54.679Z,18.50
2022-09-14T20:16:26.502Z,18.52
2022-09-14T20:18:54.932Z,18.59
2022-09-14T20:21:25.064Z,18.61
2022-09-14T20:24:15.127Z,18.61
2022-09-14T20:26:44.628Z,18.59
2022-09-14T20:29:12.597Z,18.54
2022-09-14T20:31:42.042Z,18.49
2022-09-14T20:34:10.290Z,18.48
2022-09-14T20:36:38.743Z,18.45
2022-09-14T20:39:06.766Z,18.54
2022-09-14T20:41:35.976Z,18.57
2022-09-14T20:44:05.109Z,18.53
2022-09-14T20:46:36.147Z,18.50
2022-09-14T20:49:07.621Z,18.46
2022-09-14T20:51:36.061Z,18.42
2022-09-14T20:54:04.065Z,18.37
2022-09-14T20:56:33.643Z,18.32
2022-09-14T20:59:03.104Z,18.30
2022-09-14T21:01:33.443Z,18.34
2022-09-14T21:04:04.380Z,18.32
2022-09-14T21:06:35.922Z,18.26
2022-09-14T21:09:03.773Z,18.27
2022-09-14T21:11:31.701Z,18.23
2022-09-14T21:13:59.618Z,18.16
2022-09-14T21:16:29.822Z,18.09
2022-09-14T21:18:59.063Z,18.13
2022-09-14T21:21:27.740Z,18.11
2022-09-14T21:23:58.021Z,18.04
2022-09-14T21:26:27.228Z,18.02
2022-09-14T21:28:57.184Z,17.96
2022-09-14T21:31:26.279Z,17.90
2022-09-14T21:33:55.732Z,17.94
2022-09-14T21:36:27.516Z,18.04
2022-09-14T21:38:59.628Z,18.09
2022-09-14T21:41:29.062Z,17.92
2022-09-14T21:43:57.967Z,17.82
2022-09-14T21:46:26.945Z,17.86
2022-09-14T21:48:56.003Z,17.93
2022-09-14T21:51:26.507Z,17.96
2022-09-14T21:53:55.816Z,18.01
2022-09-14T21:56:27.084Z,18.04
2022-09-14T21:58:56.811Z,18.07
2022-09-14T22:01:25.720Z,18.06
2022-09-14T22:03:55.011Z,18.12
2022-09-14T22:06:28.277Z,18.10
2022-09-14T22:08:59.804Z,18.11
2022-09-14T22:11:31.075Z,18.10
2022-09-14T22:14:00.786Z,18.15
2022-09-14T22:16:30.146Z,18.17
2022-09-14T22:18:59.856Z,18.18
2022-09-14T22:21:30.291Z,18.20
2022-09-14T22:24:00.516Z,18.22
2022-09-14T22:26:31.402Z,18.25
2022-09-14T22:29:00.090Z,18.24
2022-09-14T22:31:29.609Z,18.26
2022-09-14T22:33:58.750Z,18.28
2022-09-14T22:36:27.101Z,18.33
2022-09-14T22:38:56.581Z,18.36
2022-09-14T22:41:26.091Z,18.40
2022-09-14T22:43:56.068Z,18.33
2022-09-14T22:46:25.129Z,18.23
2022-09-14T22:48:53.644Z,18.17
2022-09-14T22:51:26.852Z,18.05
2022-09-14T22:53:56.103Z,17.93
2022-09-14T22:56:25.716Z,17.87
2022-09-14T22:58:55.129Z,17.85
2022-09-14T23:01:25.852Z,17.81
2022-09-14T23:03:57.082Z,17.75
2022-09-14T23:06:29.128Z,17.67
2022-09-14T23:08:57.196Z,17.67
2022-09-14T23:11:25.449Z,17.71
2022-09-14T23:13:53.371Z,17.71
2022-09-14T23:16:26.591Z,17.72
2022-09-14T23:18:57.639Z,17.73
2022-09-14T23:21:26.043Z,17.70
2022-09-14T23:23:55.349Z,17.72
2022-09-14T23:26:23.929Z,17.68
2022-09-14T23:28:53.415Z,17.65
2022-09-14T23:31:23.258Z,17.65
2022-09-14T23:33:52.033Z,17.67
2022-09-14T23:36:22.031Z,17.67
2022-09-14T23:38:50.336Z,17.70
2022-09-14T23:41:19.554Z,17.77
2022-09-14T23:43:47.597Z,17.77
2022-09-14T23:46:16.119Z,17.78
2022-09-14T23:48:46.215Z,17.84
2022-09-14T23:51:14.386Z,17.89
2022-09-14T23:53:42.693Z,17.90
2022-09-14T23:56:11.631Z,17.99
2022-09-14T23:58:41.271Z,18.05
